Time;durP1;ratioP1;P1;durP2;ratioP2;P2;SDS_P1;SDS_P2;PMS_P1;PMS_P2;Temp;Humidity;BMP_temperature;BMP_pressure;BME280_temperature;BME280_humidity;BME280_pressure;Samples;Min_cycle;Max_cycle;Signal;HPM_P1;HPM_P2
2022/04/01 00:02:12;;;;;;;;;;;;;;;;;;2207907;67;1264;-70
2022/04/01 00:04:48;;;;;;;;;;;;;;;;;;2208043;59;1586;-70
2022/04/01 00:07:22;;;;;;;;;;;;;;;;;;2207368;59;1741;-70
2022/04/01 00:09:55;;;;;;;;;;;;;;;;;;2208304;67;1253;-70
2022/04/01 00:12:28;;;;;;;;;;;;;;;;;;2208542;59;1674;-70
2022/04/01 00:15:02;;;;;;;;;;;;;;;;;;2207824;67;1958;-70
2022/04/01 00:17:35;;;;;;;;;;;;;;;;;;2208688;59;1097;-70
2022/04/01 00:20:13;;;;;;;;;;;;;;;;;;2207536;59;1500;-70
2022/04/01 00:22:46;;;;;;;;;;;;;;;;;;2207723;59;1198;-70
2022/04/01 00:25:19;;;;;;;;;;;;;;;;;;2207931;59;1170;-70
2022/04/01 00:27:53;;;;;;;;;;;;;;;;;;2207691;67;1243;-71
2022/04/01 00:30:26;;;;;;;;;;;;;;;;;;2208242;59;2091;-70
2022/04/01 00:32:59;;;;;;;;;;;;;;;;;;2208503;53;2083;-69
2022/04/01 00:35:35;;;;;;;;;;;;;;;;;;2206332;59;1980;-68
2022/04/01 00:38:08;;;;;;;;;;;;;;;;;;2209255;59;1210;-68
2022/04/01 00:40:42;;;;;;;;;;;;;;;;;;2209806;59;1174;-68
2022/04/01 00:43:15;;;;;;;;;;;;;;;;;;2208448;59;1811;-68
2022/04/01 00:45:48;;;;;;;;;;;;;;;;;;2208636;67;1238;-69
2022/04/01 00:48:22;;;;;;;;;;;;;;;;;;2209460;67;1223;-68
2022/04/01 00:50:59;;;;;;;;;;;;;;;;;;2209488;60;1214;-68
2022/04/01 00:53:32;;;;;;;;;;;;;;;;;;2208921;59;1797;-68
2022/04/01 00:56:06;;;;;;;;;;;;;;;;;;2208911;67;1971;-69
2022/04/01 00:58:39;;;;;;;;;;;;;;;;;;2208729;67;1197;-68
2022/04/01 01:01:13;;;;;;;;;;;;;;;;;;2208801;67;1102;-68
2022/04/01 01:03:46;;;;;;;;;;;;;;;;;;2208683;67;1301;-68
2022/04/01 01:06:23;;;;;;;;;;;;;;;;;;2208899;67;1240;-68
2022/04/01 01:08:56;;;;;;;;;;;;;;;;;;2209430;67;1338;-68
2022/04/01 01:11:30;;;;;;;;;;;;;;;;;;2208941;67;1309;-68
2022/04/01 01:14:03;;;;;;;;;;;;;;;;;;2208619;59;1748;-68
2022/04/01 01:16:38;;;;;;;;;;;;;;;;;;2208598;67;1931;-68
2022/04/01 01:19:15;;;;;;;;;;;;;;;;;;2211995;67;1239;-68
2022/04/01 01:21:53;;;;;;;;;;;;;;;;;;2208934;67;1211;-69
2022/04/01 01:24:31;;;;;;;;;;;;;;;;;;2207367;59;1219;-68
2022/04/01 01:27:05;;;;;;;;;;;;;;;;;;2208733;67;1205;-68
2022/04/01 01:29:40;;;;;;;;;;;;;;;;;;2208376;59;1163;-68
2022/04/01 01:32:16;;;;;;;;;;;;;;;;;;2208679;67;1246;-68
2022/04/01 01:34:49;;;;;;;;;;;;;;;;;;2207301;59;1928;-68
2022/04/01 01:37:24;;;;;;;;;;;;;;;;;;2208345;59;1604;-68
2022/04/01 01:40:01;;;;;;;;;;;;;;;;;;2209411;67;1132;-68
2022/04/01 01:42:36;;;;;;;;;;;;;;;;;;2206983;59;2155;-69
2022/04/01 01:45:10;;;;;;;;;;;;;;;;;;2208552;67;1701;-68
2022/04/01 01:47:43;;;;;;;;;;;;;;;;;;2208964;67;1187;-69
2022/04/01 01:55:59;;;;;;;;;;;;;;;;;;2208169;67;1996;-69
2022/04/01 01:58:34;;;;;;;;;;;;;;;;;;2208219;67;1298;-68
2022/04/01 02:01:07;;;;;;;;;;;;;;;;;;2206808;59;1781;-69
2022/04/01 02:03:41;;;;;;;;;;;;;;;;;;2208204;67;1239;-69
2022/04/01 02:06:14;;;;;;;;;;;;;;;;;;2209055;59;1172;-69
2022/04/01 02:08:47;;;;;;;;;;;;;;;;;;2208686;67;1295;-68
2022/04/01 02:11:24;;;;;;;;;;;;;;;;;;2209076;67;1273;-69
2022/04/01 02:13:58;;;;;;;;;;;;;;;;;;2209020;59;1837;-68
2022/04/01 02:16:31;;;;;;;;;;;;;;;;;;2207840;67;1933;-69
2022/04/01 02:19:05;;;;;;;;;;;;;;;;;;2208567;59;1991;-69
2022/04/01 02:21:39;;;;;;;;;;;;;;;;;;2208749;67;1110;-68
2022/04/01 02:24:13;;;;;;;;;;;;;;;;;;2208698;67;1238;-69
2022/04/01 02:26:50;;;;;;;;;;;;;;;;;;2208781;67;1281;-68
2022/04/01 02:29:24;;;;;;;;;;;;;;;;;;2208183;59;1173;-68
2022/04/01 02:31:58;;;;;;;;;;;;;;;;;;2209034;67;1271;-69
2022/04/01 02:34:31;;;;;;;;;;;;;;;;;;2209227;59;1806;-69
2022/04/01 02:37:05;;;;;;;;;;;;;;;;;;2207474;59;1973;-69
2022/04/01 02:39:38;;;;;;;;;;;;;;;;;;2208186;59;1261;-69
2022/04/01 02:42:14;;;;;;;;;;;;;;;;;;2209570;67;1178;-68
2022/04/01 02:44:47;;;;;;;;;;;;;;;;;;2208484;59;1769;-69
2022/04/01 02:47:27;;;;;;;;;;;;;;;;;;2208499;67;1238;-69
2022/04/01 02:50:01;;;;;;;;;;;;;;;;;;2205482;67;1681;-68
2022/04/01 02:52:34;;;;;;;;;;;;;;;;;;2208322;59;1931;-68
2022/04/01 02:55:08;;;;;;;;;;;;;;;;;;2209124;67;1915;-68
2022/04/01 02:57:44;;;;;;;;;;;;;;;;;;2207493;59;1113;-69
2022/04/01 03:00:21;;;;;;;;;;;;;;;;;;2209117;67;1260;-68
2022/04/01 03:02:54;;;;;;;;;;;;;;;;;;2208421;67;1244;-68
2022/04/01 03:05:29;;;;;;;;;;;;;;;;;;2208652;67;1159;-68
2022/04/01 03:08:03;;;;;;;;;;;;;;;;;;2210489;59;1137;-68
2022/04/01 03:10:37;;;;;;;;;;;;;;;;;;2209302;67;1101;-69
2022/04/01 03:13:14;;;;;;;;;;;;;;;;;;2209896;59;1744;-68
2022/04/01 03:15:47;;;;;;;;;;;;;;;;;;2209484;67;1947;-69
2022/04/01 03:18:20;;;;;;;;;;;;;;;;;;2208930;59;1283;-69
2022/04/01 03:20:54;;;;;;;;;;;;;;;;;;2209779;67;1183;-70
2022/04/01 03:23:31;;;;;;;;;;;;;;;;;;2209082;67;1231;-68
2022/04/01 03:26:04;;;;;;;;;;;;;;;;;;2210105;67;1124;-69
2022/04/01 03:28:41;;;;;;;;;;;;;;;;;;2205511;67;1146;-68
2022/04/01 03:31:14;;;;;;;;;;;;;;;;;;2209403;67;2313;-69
2022/04/01 03:33:47;;;;;;;;;;;;;;;;;;2207934;59;1788;-68
2022/04/01 03:36:20;;;;;;;;;;;;;;;;;;2209533;67;1985;-69
2022/04/01 03:38:54;;;;;;;;;;;;;;;;;;2208744;59;1655;-68
2022/04/01 03:41:29;;;;;;;;;;;;;;;;;;2209279;67;1135;-68
2022/04/01 03:44:05;;;;;;;;;;;;;;;;;;2209808;67;1788;-69
2022/04/01 03:46:48;;;;;;;;;;;;;;;;;;2209551;67;1071;-68
2022/04/01 03:49:23;;;;;;;;;;;;;;;;;;2209156;60;1099;-68
2022/04/01 03:51:57;;;;;;;;;;;;;;;;;;2210091;67;1226;-69
2022/04/01 03:54:31;;;;;;;;;;;;;;;;;;2209063;59;1885;-69
2022/04/01 03:57:05;;;;;;;;;;;;;;;;;;2208089;59;1916;-69
2022/04/01 03:59:44;;;;;;;;;;;;;;;;;;2209847;67;1242;-69
2022/04/01 04:02:18;;;;;;;;;;;;;;;;;;2209191;67;1334;-69
2022/04/01 04:04:52;;;;;;;;;;;;;;;;;;2209613;67;1274;-68
2022/04/01 04:07:26;;;;;;;;;;;;;;;;;;2209835;67;1066;-68
2022/04/01 04:10:00;;;;;;;;;;;;;;;;;;2208866;59;1211;-69
2022/04/01 04:12:33;;;;;;;;;;;;;;;;;;2207695;59;1824;-69
2022/04/01 04:15:10;;;;;;;;;;;;;;;;;;2208325;59;1671;-68
2022/04/01 04:17:46;;;;;;;;;;;;;;;;;;2208550;67;1936;-68
2022/04/01 04:20:24;;;;;;;;;;;;;;;;;;2208843;67;1067;-68
2022/04/01 04:23:06;;;;;;;;;;;;;;;;;;2208503;67;1223;-69
2022/04/01 04:25:40;;;;;;;;;;;;;;;;;;2209021;67;1144;-68
2022/04/01 04:28:23;;;;;;;;;;;;;;;;;;2208969;67;1033;-69
2022/04/01 04:31:05;;;;;;;;;;;;;;;;;;2209708;59;2063;-69
2022/04/01 04:33:40;;;;;;;;;;;;;;;;;;2207764;59;1694;-69
2022/04/01 04:36:14;;;;;;;;;;;;;;;;;;2208412;67;1988;-69
2022/04/01 04:38:48;;;;;;;;;;;;;;;;;;2209140;67;1117;-68
2022/04/01 04:41:23;;;;;;;;;;;;;;;;;;2205768;59;1198;-69
2022/04/01 04:43:56;;;;;;;;;;;;;;;;;;2208370;59;1907;-69
2022/04/01 04:46:33;;;;;;;;;;;;;;;;;;2209595;67;1192;-68
2022/04/01 04:49:06;;;;;;;;;;;;;;;;;;2207896;67;1085;-69
2022/04/01 04:51:40;;;;;;;;;;;;;;;;;;2209546;67;1169;-69
2022/04/01 04:54:13;;;;;;;;;;;;;;;;;;2203167;59;1746;-68
2022/04/01 04:56:47;;;;;;;;;;;;;;;;;;2209943;67;1936;-69
2022/04/01 04:59:22;;;;;;;;;;;;;;;;;;2209977;67;1260;-69
2022/04/01 05:02:00;;;;;;;;;;;;;;;;;;2209833;67;1168;-69
2022/04/01 05:04:51;;;;;;;;;;;;;;;;;;2207686;67;1268;-69
2022/04/01 05:07:33;;;;;;;;;;;;;;;;;;2209827;59;1217;-69
2022/04/01 05:10:08;;;;;;;;;;;;;;;;;;2208950;59;1291;-69
2022/04/01 05:12:47;;;;;;;;;;;;;;;;;;2207183;59;1770;-69
2022/04/01 05:15:22;;;;;;;;;;;;;;;;;;2203153;59;1676;-69
2022/04/01 05:18:04;;;;;;;;;;;;;;;;;;2203992;67;1995;-68
2022/04/01 05:20:38;;;;;;;;;;;;;;;;;;2208485;59;1167;-69
2022/04/01 05:23:15;;;;;;;;;;;;;;;;;;2207574;67;1267;-68
2022/04/01 05:25:49;;;;;;;;;;;;;;;;;;2207733;67;1227;-69
2022/04/01 05:28:24;;;;;;;;;;;;;;;;;;2208289;67;1121;-69
2022/04/01 05:30:59;;;;;;;;;;;;;;;;;;2207582;59;2044;-68
2022/04/01 05:33:42;;;;;;;;;;;;;;;;;;2207038;59;1708;-69
2022/04/01 05:36:17;;;;;;;;;;;;;;;;;;2207247;67;1945;-69
2022/04/01 05:38:51;;;;;;;;;;;;;;;;;;2207411;67;1176;-69
2022/04/01 05:41:25;;;;;;;;;;;;;;;;;;2208874;67;1124;-69
2022/04/01 05:43:59;;;;;;;;;;;;;;;;;;2207768;59;1981;-69
2022/04/01 05:46:33;;;;;;;;;;;;;;;;;;2207341;59;1221;-69
2022/04/01 05:49:09;;;;;;;;;;;;;;;;;;2208442;59;1251;-69
2022/04/01 05:51:42;;;;;;;;;;;;;;;;;;2208526;67;1133;-69
2022/04/01 05:54:19;;;;;;;;;;;;;;;;;;2207565;59;1949;-69
2022/04/01 05:56:52;;;;;;;;;;;;;;;;;;2208826;67;1920;-69
2022/04/01 05:59:26;;;;;;;;;;;;;;;;;;2208648;67;1282;-69
2022/04/01 06:02:08;;;;;;;;;;;;;;;;;;2207773;67;1144;-69
2022/04/01 06:04:56;;;;;;;;;;;;;;;;;;2205453;67;1500;-69
2022/04/01 06:07:31;;;;;;;;;;;;;;;;;;2208628;59;1100;-69
2022/04/01 06:10:09;;;;;;;;;;;;;;;;;;2210858;67;1294;-68
2022/04/01 06:12:48;;;;;;;;;;;;;;;;;;2208433;59;1728;-69
2022/04/01 06:15:24;;;;;;;;;;;;;;;;;;2207263;59;1607;-69
2022/04/01 06:18:04;;;;;;;;;;;;;;;;;;2207611;67;1996;-69
2022/04/01 06:20:42;;;;;;;;;;;;;;;;;;2209027;67;1172;-69
2022/04/01 06:23:21;;;;;;;;;;;;;;;;;;2208161;59;1200;-69
2022/04/01 06:25:57;;;;;;;;;;;;;;;;;;2207521;59;1902;-69
2022/04/01 06:28:31;;;;;;;;;;;;;;;;;;2208787;67;1113;-69
2022/04/01 06:31:06;;;;;;;;;;;;;;;;;;2207730;59;1919;-68
2022/04/01 06:33:43;;;;;;;;;;;;;;;;;;2211338;53;1908;-68
2022/04/01 06:36:24;;;;;;;;;;;;;;;;;;2204519;59;1927;-69
2022/04/01 06:38:58;;;;;;;;;;;;;;;;;;2205986;59;1556;-68
2022/04/01 06:41:31;;;;;;;;;;;;;;;;;;2205814;59;1173;-69
2022/04/01 06:44:05;;;;;;;;;;;;;;;;;;2205865;59;1907;-68
2022/04/01 06:46:38;;;;;;;;;;;;;;;;;;2205903;60;1211;-69
2022/04/01 06:49:11;;;;;;;;;;;;;;;;;;2202560;59;1213;-69
2022/04/01 06:51:47;;;;;;;;;;;;;;;;;;2205400;59;1503;-69
2022/04/01 06:54:20;;;;;;;;;;;;;;;;;;2206490;59;1745;-68
2022/04/01 06:56:53;;;;;;;;;;;;;;;;;;2205475;67;1933;-69
2022/04/01 06:59:27;;;;;;;;;;;;;;;;;;2205661;67;1310;-68
2022/04/01 07:02:00;;;;;;;;;;;;;;;;;;2206206;67;1150;-68
2022/04/01 07:04:33;;;;;;;;;;;;;;;;;;2202370;67;1815;-68
2022/04/01 07:07:09;;;;;;;;;;;;;;;;;;2205618;59;2211;-69
2022/04/01 07:09:42;;;;;;;;;;;;;;;;;;2205973;59;1202;-68
2022/04/01 07:12:15;;;;;;;;;;;;;;;;;;2206646;59;1169;-68
2022/04/01 07:14:49;;;;;;;;;;;;;;;;;;2204982;59;1630;-69
2022/04/01 07:17:22;;;;;;;;;;;;;;;;;;2205644;59;1939;-68
2022/04/01 07:19:55;;;;;;;;;;;;;;;;;;2206176;59;1141;-68
2022/04/01 07:22:31;;;;;;;;;;;;;;;;;;2205908;59;1221;-68
2022/04/01 07:25:04;;;;;;;;;;;;;;;;;;2205600;59;1156;-69
2022/04/01 07:27:38;;;;;;;;;;;;;;;;;;2206310;67;1041;-70
2022/04/01 07:30:12;;;;;;;;;;;;;;;;;;2202364;59;1859;-69
2022/04/01 07:32:45;;;;;;;;;;;;;;;;;;2205040;59;1569;-69
2022/04/01 07:35:18;;;;;;;;;;;;;;;;;;2205218;67;1072;-68
2022/04/01 07:37:54;;;;;;;;;;;;;;;;;;2205811;67;1997;-69
2022/04/01 07:40:27;;;;;;;;;;;;;;;;;;2207232;59;1263;-68
2022/04/01 07:43:00;;;;;;;;;;;;;;;;;;2201999;67;1523;-68
2022/04/01 07:45:35;;;;;;;;;;;;;;;;;;2205625;59;1087;-68
2022/04/01 07:48:09;;;;;;;;;;;;;;;;;;2203154;67;1410;-68
2022/04/01 07:50:42;;;;;;;;;;;;;;;;;;2206842;67;1073;-69
2022/04/01 07:53:18;;;;;;;;;;;;;;;;;;2205502;59;1577;-69
2022/04/01 07:55:51;;;;;;;;;;;;;;;;;;2206343;59;1128;-69
2022/04/01 07:58:24;;;;;;;;;;;;;;;;;;2206459;67;1940;-68
2022/04/01 08:00:59;;;;;;;;;;;;;;;;;;2206548;67;1101;-69
2022/04/01 08:03:32;;;;;;;;;;;;;;;;;;2206690;59;1169;-69
2022/04/01 08:06:05;;;;;;;;;;;;;;;;;;2205451;67;1267;-69
2022/04/01 08:08:41;;;;;;;;;;;;;;;;;;2205708;67;1037;-69
2022/04/01 08:11:14;;;;;;;;;;;;;;;;;;2206350;67;1252;-68
2022/04/01 08:13:47;;;;;;;;;;;;;;;;;;2206154;59;1591;-69
2022/04/01 08:16:20;;;;;;;;;;;;;;;;;;2205940;59;1072;-68
2022/04/01 08:18:53;;;;;;;;;;;;;;;;;;2206361;59;1984;-69
2022/04/01 08:21:26;;;;;;;;;;;;;;;;;;2206345;59;1303;-68
2022/04/01 08:24:02;;;;;;;;;;;;;;;;;;2205283;59;1212;-68
2022/04/01 08:26:36;;;;;;;;;;;;;;;;;;2206381;67;1230;-68
2022/04/01 08:29:09;;;;;;;;;;;;;;;;;;2206626;59;1180;-68
2022/04/01 08:31:42;;;;;;;;;;;;;;;;;;2206664;67;2158;-69
2022/04/01 08:34:15;;;;;;;;;;;;;;;;;;2205841;59;1564;-68
2022/04/01 08:36:48;;;;;;;;;;;;;;;;;;2203259;67;1301;-68
2022/04/01 08:39:24;;;;;;;;;;;;;;;;;;2206293;67;1183;-68
2022/04/01 08:41:59;;;;;;;;;;;;;;;;;;2202269;67;1110;-68
2022/04/01 08:44:32;;;;;;;;;;;;;;;;;;2206477;59;1859;-68
2022/04/01 08:47:06;;;;;;;;;;;;;;;;;;2206103;59;1204;-68
2022/04/01 08:49:39;;;;;;;;;;;;;;;;;;2205946;59;1778;-69
2022/04/01 08:52:12;;;;;;;;;;;;;;;;;;2205381;59;1093;-69
2022/04/01 08:54:48;;;;;;;;;;;;;;;;;;2206994;59;1244;-69
2022/04/01 08:57:21;;;;;;;;;;;;;;;;;;2207126;59;1932;-68
2022/04/01 08:59:57;;;;;;;;;;;;;;;;;;2205342;67;1093;-68
2022/04/01 09:02:30;;;;;;;;;;;;;;;;;;2206273;67;1250;-68
2022/04/01 09:05:07;;;;;;;;;;;;;;;;;;2206535;59;1604;-68
2022/04/01 09:07:40;;;;;;;;;;;;;;;;;;2204547;59;1873;-68
2022/04/01 09:10:16;;;;;;;;;;;;;;;;;;2205699;59;1167;-69
2022/04/01 09:12:51;;;;;;;;;;;;;;;;;;2204541;67;1293;-68
2022/04/01 09:15:24;;;;;;;;;;;;;;;;;;2206434;59;1212;-69
2022/04/01 09:17:57;;;;;;;;;;;;;;;;;;2206379;67;1936;-68
2022/04/01 09:20:30;;;;;;;;;;;;;;;;;;2205888;67;1409;-68
2022/04/01 09:23:04;;;;;;;;;;;;;;;;;;2206626;59;1576;-68
2022/04/01 09:25:48;;;;;;;;;;;;;;;;;;2204513;67;1149;-69
2022/04/01 09:28:25;;;;;;;;;;;;;;;;;;2206339;67;1167;-68
2022/04/01 09:30:59;;;;;;;;;;;;;;;;;;2206471;59;1924;-68
2022/04/01 09:33:48;;;;;;;;;;;;;;;;;;2205482;67;1279;-68
2022/04/01 09:36:25;;;;;;;;;;;;;;;;;;2206274;59;1149;-69
2022/04/01 09:38:59;;;;;;;;;;;;;;;;;;2205629;59;1931;-69
2022/04/01 09:41:37;;;;;;;;;;;;;;;;;;2202807;67;1283;-68
2022/04/01 09:44:12;;;;;;;;;;;;;;;;;;2205763;59;2123;-69
2022/04/01 09:46:46;;;;;;;;;;;;;;;;;;2205505;59;1223;-69
2022/04/01 09:49:31;;;;;;;;;;;;;;;;;;2202672;67;1453;-68
2022/04/01 09:52:05;;;;;;;;;;;;;;;;;;2204934;67;1072;-69
2022/04/01 09:54:45;;;;;;;;;;;;;;;;;;2202406;67;1266;-69
2022/04/01 09:57:22;;;;;;;;;;;;;;;;;;2203249;67;1939;-68
2022/04/01 09:59:55;;;;;;;;;;;;;;;;;;2205890;67;1080;-68
2022/04/01 10:02:29;;;;;;;;;;;;;;;;;;2207241;67;1240;-68
2022/04/01 10:05:03;;;;;;;;;;;;;;;;;;2205333;59;1278;-69
2022/04/01 10:07:37;;;;;;;;;;;;;;;;;;2205664;67;1090;-69
2022/04/01 10:10:11;;;;;;;;;;;;;;;;;;2206731;59;1259;-69
2022/04/01 10:12:48;;;;;;;;;;;;;;;;;;2206367;59;1243;-69
2022/04/01 10:15:23;;;;;;;;;;;;;;;;;;2206733;59;1292;-68
2022/04/01 10:17:58;;;;;;;;;;;;;;;;;;2205598;67;1920;-68
2022/04/01 10:20:33;;;;;;;;;;;;;;;;;;2206488;67;1429;-68
2022/04/01 10:23:07;;;;;;;;;;;;;;;;;;2205162;59;1709;-69
2022/04/01 10:25:45;;;;;;;;;;;;;;;;;;2206269;67;1254;-68
2022/04/01 10:28:22;;;;;;;;;;;;;;;;;;2205954;67;1220;-69
2022/04/01 10:30:56;;;;;;;;;;;;;;;;;;2202865;59;2122;-69
2022/04/01 10:33:33;;;;;;;;;;;;;;;;;;2206274;59;1178;-69
2022/04/01 10:36:16;;;;;;;;;;;;;;;;;;2206218;67;1088;-69
2022/04/01 10:38:50;;;;;;;;;;;;;;;;;;2204905;67;1924;-68
2022/04/01 10:41:23;;;;;;;;;;;;;;;;;;2206737;67;1117;-68
2022/04/01 10:44:00;;;;;;;;;;;;;;;;;;2206033;59;1810;-71
2022/04/01 10:46:34;;;;;;;;;;;;;;;;;;2204723;67;1057;-69
2022/04/01 10:52:05;;;;;;;;;;;;;;;;;;2206553;59;1128;-68
2022/04/01 10:54:45;;;;;;;;;;;;;;;;;;2206444;59;1240;-68
2022/04/01 10:57:29;;;;;;;;;;;;;;;;;;2206617;67;1266;-68
2022/04/01 11:00:07;;;;;;;;;;;;;;;;;;2205892;59;1952;-68
2022/04/01 11:02:41;;;;;;;;;;;;;;;;;;2206501;59;1636;-68
2022/04/01 11:05:24;;;;;;;;;;;;;;;;;;2204541;59;1436;-69
2022/04/01 11:08:16;;;;;;;;;;;;;;;;;;2205597;59;1179;-68
2022/04/01 11:11:09;;;;;;;;;;;;;;;;;;2205199;67;1018;-69
2022/04/01 11:13:42;;;;;;;;;;;;;;;;;;2206774;59;1219;-69
2022/04/01 11:16:20;;;;;;;;;;;;;;;;;;2207283;67;1262;-69
2022/04/01 11:19:13;;;;;;;;;;;;;;;;;;2206656;67;1928;-68
2022/04/01 11:21:47;;;;;;;;;;;;;;;;;;2207112;67;1244;-69
2022/04/01 11:24:33;;;;;;;;;;;;;;;;;;2205843;59;1685;-71
2022/04/01 11:27:09;;;;;;;;;;;;;;;;;;2207461;67;1204;-68
2022/04/01 11:29:43;;;;;;;;;;;;;;;;;;2206714;59;1834;-68
2022/04/01 11:32:20;;;;;;;;;;;;;;;;;;2207476;59;1112;-69
2022/04/01 11:34:57;;;;;;;;;;;;;;;;;;2206470;59;1312;-69
2022/04/01 11:37:30;;;;;;;;;;;;;;;;;;2206598;67;1156;-69
2022/04/01 11:40:10;;;;;;;;;;;;;;;;;;2205916;67;1992;-69
2022/04/01 11:42:53;;;;;;;;;;;;;;;;;;2206947;67;1303;-69
2022/04/01 11:45:28;;;;;;;;;;;;;;;;;;2205485;59;1911;-69
2022/04/01 11:48:04;;;;;;;;;;;;;;;;;;2205967;67;1203;-69
2022/04/01 11:50:37;;;;;;;;;;;;;;;;;;2206759;59;1590;-69
2022/04/01 11:53:11;;;;;;;;;;;;;;;;;;2206407;59;1235;-69
2022/04/01 11:55:45;;;;;;;;;;;;;;;;;;2206384;59;2360;-68
2022/04/01 11:58:18;;;;;;;;;;;;;;;;;;2206427;59;2215;-69
2022/04/01 12:00:52;;;;;;;;;;;;;;;;;;2206154;59;1714;-68
2022/04/01 12:03:27;;;;;;;;;;;;;;;;;;2205849;59;1655;-68
2022/04/01 12:08:46;;;;;;;;;;;;;;;;;;2206358;59;3430;-68
2022/04/01 12:11:19;;;;;;;;;;;;;;;;;;2207318;59;2195;-68
2022/04/01 12:13:54;;;;;;;;;;;;;;;;;;2206040;59;1293;-68
2022/04/01 12:16:27;;;;;;;;;;;;;;;;;;2206768;59;1142;-68
2022/04/01 12:19:03;;;;;;;;;;;;;;;;;;2206428;67;1935;-68
2022/04/01 12:21:36;;;;;;;;;;;;;;;;;;2206056;59;1220;-69
2022/04/01 12:24:10;;;;;;;;;;;;;;;;;;2205746;59;1603;-68
2022/04/01 12:26:44;;;;;;;;;;;;;;;;;;2206219;59;1735;-68
2022/04/01 12:29:21;;;;;;;;;;;;;;;;;;2201551;59;2246;-68
2022/04/01 12:31:56;;;;;;;;;;;;;;;;;;2206346;59;1760;-68
2022/04/01 12:34:32;;;;;;;;;;;;;;;;;;2203705;59;3694;-69
2022/04/01 12:37:07;;;;;;;;;;;;;;;;;;2203429;59;1346;-69
2022/04/01 12:39:45;;;;;;;;;;;;;;;;;;2205648;67;1935;-68
2022/04/01 12:42:21;;;;;;;;;;;;;;;;;;2205941;59;1237;-68
2022/04/01 12:44:57;;;;;;;;;;;;;;;;;;2205640;67;1928;-68
2022/04/01 12:47:32;;;;;;;;;;;;;;;;;;2206025;67;1131;-68
2022/04/01 12:50:08;;;;;;;;;;;;;;;;;;2205746;59;1104;-68
2022/04/01 12:52:44;;;;;;;;;;;;;;;;;;2205862;67;1248;-69
2022/04/01 12:55:24;;;;;;;;;;;;;;;;;;2205241;59;1333;-69
2022/04/01 12:57:57;;;;;;;;;;;;;;;;;;2205541;67;1190;-69
2022/04/01 13:00:31;;;;;;;;;;;;;;;;;;2204343;67;1987;-69
2022/04/01 13:03:04;;;;;;;;;;;;;;;;;;2204553;67;1216;-68
2022/04/01 13:05:37;;;;;;;;;;;;;;;;;;2205410;59;1611;-69
2022/04/01 13:08:13;;;;;;;;;;;;;;;;;;2204991;59;1179;-68
2022/04/01 13:10:52;;;;;;;;;;;;;;;;;;2205247;59;1960;-69
2022/04/01 13:13:25;;;;;;;;;;;;;;;;;;2205325;59;1907;-68
2022/04/01 13:16:03;;;;;;;;;;;;;;;;;;2205378;67;1293;-68
2022/04/01 13:18:36;;;;;;;;;;;;;;;;;;2205907;59;1927;-68
2022/04/01 13:21:09;;;;;;;;;;;;;;;;;;2205900;59;1184;-69
2022/04/01 13:23:45;;;;;;;;;;;;;;;;;;2205786;59;1254;-68
2022/04/01 13:26:24;;;;;;;;;;;;;;;;;;2205812;59;1219;-68
2022/04/01 13:28:57;;;;;;;;;;;;;;;;;;2205436;59;1141;-68
2022/04/01 13:31:30;;;;;;;;;;;;;;;;;;2205738;59;2071;-68
2022/04/01 13:34:04;;;;;;;;;;;;;;;;;;2203597;59;1852;-68
2022/04/01 13:36:37;;;;;;;;;;;;;;;;;;2204909;67;1255;-68
2022/04/01 13:39:13;;;;;;;;;;;;;;;;;;2205499;67;1936;-68
2022/04/01 13:41:47;;;;;;;;;;;;;;;;;;2206000;67;1177;-68
2022/04/01 13:44:20;;;;;;;;;;;;;;;;;;2206089;59;1817;-68
2022/04/01 13:46:53;;;;;;;;;;;;;;;;;;2205561;67;1101;-68
2022/04/01 13:49:27;;;;;;;;;;;;;;;;;;2205510;67;1401;-68
2022/04/01 13:52:00;;;;;;;;;;;;;;;;;;2205544;67;1190;-68
2022/04/01 13:54:36;;;;;;;;;;;;;;;;;;2203919;59;1868;-68
2022/04/01 13:57:11;;;;;;;;;;;;;;;;;;2204003;59;1140;-68
2022/04/01 13:59:46;;;;;;;;;;;;;;;;;;2205037;67;1985;-69
2022/04/01 14:02:19;;;;;;;;;;;;;;;;;;2205240;67;1259;-69
2022/04/01 14:04:52;;;;;;;;;;;;;;;;;;2205725;59;1227;-68
2022/04/01 14:07:26;;;;;;;;;;;;;;;;;;2204324;59;1315;-68
2022/04/01 14:10:02;;;;;;;;;;;;;;;;;;2205542;59;1313;-68
2022/04/01 14:12:35;;;;;;;;;;;;;;;;;;2204776;59;2182;-68
2022/04/01 14:15:09;;;;;;;;;;;;;;;;;;2202718;59;1629;-68
2022/04/01 14:17:42;;;;;;;;;;;;;;;;;;2203330;59;1705;-68
2022/04/01 14:20:16;;;;;;;;;;;;;;;;;;2204613;59;2432;-68
2022/04/01 14:22:49;;;;;;;;;;;;;;;;;;2205756;59;1643;-68
2022/04/01 14:25:25;;;;;;;;;;;;;;;;;;2204324;59;1855;-68
2022/04/01 14:27:58;;;;;;;;;;;;;;;;;;2205260;59;1231;-68
2022/04/01 14:30:31;;;;;;;;;;;;;;;;;;2205105;59;2030;-68
2022/04/01 14:33:05;;;;;;;;;;;;;;;;;;2204969;59;1784;-68
2022/04/01 14:35:38;;;;;;;;;;;;;;;;;;2202516;67;1750;-68
2022/04/01 14:38:12;;;;;;;;;;;;;;;;;;2205109;59;1199;-68
2022/04/01 14:40:48;;;;;;;;;;;;;;;;;;2205513;59;2187;-69
2022/04/01 14:43:21;;;;;;;;;;;;;;;;;;2206147;59;1632;-68
2022/04/01 14:45:54;;;;;;;;;;;;;;;;;;2205043;59;1760;-69
2022/04/01 14:48:29;;;;;;;;;;;;;;;;;;2205948;67;1214;-68
2022/04/01 14:51:02;;;;;;;;;;;;;;;;;;2206280;59;1199;-68
2022/04/01 14:53:36;;;;;;;;;;;;;;;;;;2204624;59;1866;-68
2022/04/01 14:56:13;;;;;;;;;;;;;;;;;;2206200;67;1223;-68
2022/04/01 14:58:46;;;;;;;;;;;;;;;;;;2205875;59;2354;-68
2022/04/01 15:01:19;;;;;;;;;;;;;;;;;;2205482;59;1906;-68
2022/04/01 15:03:53;;;;;;;;;;;;;;;;;;2205627;59;2150;-68
2022/04/01 15:06:27;;;;;;;;;;;;;;;;;;2206539;59;2469;-68
2022/04/01 15:09:00;;;;;;;;;;;;;;;;;;2206537;59;1183;-68
2022/04/01 15:11:36;;;;;;;;;;;;;;;;;;2205629;59;2345;-68
2022/04/01 15:14:09;;;;;;;;;;;;;;;;;;2204672;59;1692;-68
2022/04/01 15:16:42;;;;;;;;;;;;;;;;;;2204525;59;1521;-68
2022/04/01 15:19:16;;;;;;;;;;;;;;;;;;2204216;59;2138;-68
2022/04/01 15:21:49;;;;;;;;;;;;;;;;;;2203920;59;2335;-69
2022/04/01 15:24:22;;;;;;;;;;;;;;;;;;2206280;59;1248;-68
2022/04/01 15:26:58;;;;;;;;;;;;;;;;;;2202995;59;1764;-68
2022/04/01 15:29:31;;;;;;;;;;;;;;;;;;2203883;67;1222;-68
2022/04/01 15:32:05;;;;;;;;;;;;;;;;;;2203463;59;1564;-68
2022/04/01 15:34:38;;;;;;;;;;;;;;;;;;2203209;59;2103;-68
2022/04/01 15:37:15;;;;;;;;;;;;;;;;;;2204088;67;1261;-68
2022/04/01 15:39:51;;;;;;;;;;;;;;;;;;2205910;59;2009;-68
2022/04/01 15:42:28;;;;;;;;;;;;;;;;;;2206723;59;1283;-68
2022/04/01 15:45:01;;;;;;;;;;;;;;;;;;2204700;59;1796;-68
2022/04/01 15:47:35;;;;;;;;;;;;;;;;;;2205211;59;1630;-69
2022/04/01 15:50:10;;;;;;;;;;;;;;;;;;2204170;59;1117;-69
2022/04/01 15:52:43;;;;;;;;;;;;;;;;;;2204216;67;1312;-69
2022/04/01 15:55:16;;;;;;;;;;;;;;;;;;2205991;59;1488;-69
2022/04/01 15:57:52;;;;;;;;;;;;;;;;;;2205956;59;1194;-68
2022/04/01 16:00:27;;;;;;;;;;;;;;;;;;2205784;59;2370;-68
2022/04/01 16:03:03;;;;;;;;;;;;;;;;;;2206994;59;1301;-68
2022/04/01 16:05:36;;;;;;;;;;;;;;;;;;2205969;59;1085;-68
2022/04/01 16:08:10;;;;;;;;;;;;;;;;;;2206784;59;1189;-69
2022/04/01 16:10:46;;;;;;;;;;;;;;;;;;2206354;59;1151;-68
2022/04/01 16:13:28;;;;;;;;;;;;;;;;;;2205635;59;1756;-69
2022/04/01 16:16:02;;;;;;;;;;;;;;;;;;2205719;67;1062;-69
2022/04/01 16:18:35;;;;;;;;;;;;;;;;;;2206361;59;1232;-68
2022/04/01 16:21:08;;;;;;;;;;;;;;;;;;2206093;59;1933;-69
2022/04/01 16:23:42;;;;;;;;;;;;;;;;;;2205465;67;1294;-68
2022/04/01 16:26:15;;;;;;;;;;;;;;;;;;2206170;67;1188;-68
2022/04/01 16:28:51;;;;;;;;;;;;;;;;;;2205730;67;1247;-68
2022/04/01 16:31:24;;;;;;;;;;;;;;;;;;2206289;59;2081;-68
2022/04/01 16:33:57;;;;;;;;;;;;;;;;;;2205034;59;1836;-69
2022/04/01 16:36:30;;;;;;;;;;;;;;;;;;2206716;59;1301;-68
2022/04/01 16:39:03;;;;;;;;;;;;;;;;;;2205795;67;1037;-68
2022/04/01 16:41:36;;;;;;;;;;;;;;;;;;2205279;59;1997;-68
2022/04/01 16:44:12;;;;;;;;;;;;;;;;;;2204991;59;1814;-69
2022/04/01 16:46:45;;;;;;;;;;;;;;;;;;2205633;67;1167;-68
2022/04/01 16:49:18;;;;;;;;;;;;;;;;;;2203055;59;1722;-68
2022/04/01 16:51:52;;;;;;;;;;;;;;;;;;2203371;59;1706;-68
2022/04/01 16:54:25;;;;;;;;;;;;;;;;;;2203710;59;1757;-68
2022/04/01 16:56:58;;;;;;;;;;;;;;;;;;2204147;59;1308;-68
2022/04/01 16:59:34;;;;;;;;;;;;;;;;;;2206201;67;1081;-68
2022/04/01 17:02:08;;;;;;;;;;;;;;;;;;2202208;59;1941;-68
2022/04/01 17:04:41;;;;;;;;;;;;;;;;;;2204096;67;1191;-68
2022/04/01 17:12:52;;;;;;;;;;;;;;;;;;2204274;59;2000;-68
2022/04/01 17:15:28;;;;;;;;;;;;;;;;;;2204299;67;1310;-69
2022/04/01 17:18:01;;;;;;;;;;;;;;;;;;2205366;67;1181;-68
2022/04/01 17:20:35;;;;;;;;;;;;;;;;;;2205843;67;1964;-68
2022/04/01 17:23:09;;;;;;;;;;;;;;;;;;2203209;59;1932;-68
2022/04/01 17:25:43;;;;;;;;;;;;;;;;;;2203067;59;1693;-68
2022/04/01 17:28:17;;;;;;;;;;;;;;;;;;2203479;59;2063;-69
2022/04/01 17:30:54;;;;;;;;;;;;;;;;;;2204039;59;1905;-69
2022/04/01 17:33:28;;;;;;;;;;;;;;;;;;2204746;59;1650;-69
2022/04/01 17:36:05;;;;;;;;;;;;;;;;;;2203904;59;1776;-68
2022/04/01 17:38:39;;;;;;;;;;;;;;;;;;2203338;59;1721;-69
2022/04/01 17:41:13;;;;;;;;;;;;;;;;;;2203150;59;1957;-69
2022/04/01 17:43:47;;;;;;;;;;;;;;;;;;2203816;59;1652;-69
2022/04/01 17:46:23;;;;;;;;;;;;;;;;;;2205270;67;1145;-69
2022/04/01 17:48:56;;;;;;;;;;;;;;;;;;2204921;59;1153;-69
2022/04/01 17:51:30;;;;;;;;;;;;;;;;;;2204973;59;1310;-69
2022/04/01 17:54:03;;;;;;;;;;;;;;;;;;2204325;59;1623;-69
2022/04/01 17:56:38;;;;;;;;;;;;;;;;;;2204797;59;1223;-69
2022/04/01 17:59:11;;;;;;;;;;;;;;;;;;2205090;67;2103;-69
2022/04/01 18:01:47;;;;;;;;;;;;;;;;;;2201947;59;1945;-69
2022/04/01 18:04:22;;;;;;;;;;;;;;;;;;2203781;67;1118;-69
2022/04/01 18:06:55;;;;;;;;;;;;;;;;;;2204628;67;1107;-69
2022/04/01 18:09:30;;;;;;;;;;;;;;;;;;2203870;59;1597;-69
2022/04/01 18:12:06;;;;;;;;;;;;;;;;;;2204723;59;1275;-69
2022/04/01 18:14:39;;;;;;;;;;;;;;;;;;2204053;59;1695;-69